createdAt,value
2019-01-21T00:01:41.977Z,-6.78
2019-01-21T00:04:16.620Z,-6.71
2019-01-21T00:06:49.476Z,-6.71
2019-01-21T00:09:23.112Z,-6.78
2019-01-21T00:11:56.012Z,-6.88
2019-01-21T00:14:29.017Z,-6.97
2019-01-21T00:17:03.771Z,-7.04
2019-01-21T00:19:36.585Z,-7.09
2019-01-21T00:22:09.485Z,-7.12
2019-01-21T00:24:42.992Z,-7.12
2019-01-21T00:27:16.766Z,-7.10
2019-01-21T00:29:49.788Z,-7.08
2019-01-21T00:32:24.673Z,-7.10
2019-01-21T00:34:59.461Z,-7.07
2019-01-21T00:37:32.220Z,-7.12
2019-01-21T00:40:06.978Z,-7.18
2019-01-21T00:42:39.883Z,-7.22
2019-01-21T00:45:15.396Z,-7.25
2019-01-21T00:47:48.497Z,-7.20
2019-01-21T00:50:22.202Z,-7.12
2019-01-21T00:52:56.542Z,-7.02
2019-01-21T00:55:33.251Z,-7.00
2019-01-21T00:58:06.205Z,-7.13
2019-01-21T01:00:39.628Z,-7.30
2019-01-21T01:03:13.816Z,-7.37
2019-01-21T01:05:49.819Z,-7.33
2019-01-21T01:08:23.049Z,-7.26
2019-01-21T01:10:56.040Z,-7.18
2019-01-21T01:13:28.988Z,-7.28
2019-01-21T01:16:02.990Z,-7.39
2019-01-21T01:18:36.423Z,-7.46
2019-01-21T01:21:10.836Z,-7.51
2019-01-21T01:23:44.018Z,-7.51
2019-01-21T01:26:18.070Z,-7.50
2019-01-21T01:28:51.006Z,-7.49
2019-01-21T01:31:25.391Z,-7.38
2019-01-21T01:33:58.216Z,-7.35
2019-01-21T01:36:31.220Z,-7.40
2019-01-21T01:39:06.702Z,-7.43
2019-01-21T01:41:39.676Z,-7.40
2019-01-21T01:44:12.642Z,-7.28
2019-01-21T01:46:46.853Z,-7.10
2019-01-21T01:49:19.922Z,-7.07
2019-01-21T01:51:52.931Z,-7.17
2019-01-21T01:54:26.360Z,-7.30
2019-01-21T01:56:59.543Z,-7.35
2019-01-21T01:59:32.540Z,-7.27
2019-01-21T02:02:07.036Z,-7.12
2019-01-21T02:04:40.004Z,-7.30
2019-01-21T02:07:14.093Z,-7.38
2019-01-21T02:09:49.607Z,-7.40
2019-01-21T02:12:22.541Z,-7.34
2019-01-21T02:14:55.395Z,-7.36
2019-01-21T02:17:28.927Z,-7.54
2019-01-21T02:20:03.528Z,-7.56
2019-01-21T02:22:44.128Z,-7.40
2019-01-21T02:25:17.725Z,-7.36
2019-01-21T02:28:42.986Z,-7.49
2019-01-21T02:32:23.965Z,-7.78
2019-01-21T02:35:36.849Z,-7.80
2019-01-21T02:39:09.705Z,-7.79
2019-01-21T02:42:01.248Z,-7.61
2019-01-21T02:45:08.774Z,-7.62
2019-01-21T02:48:38.887Z,-7.75
2019-01-21T02:51:54.923Z,-7.80
2019-01-21T02:54:59.179Z,-7.81
2019-01-21T02:58:24.898Z,-7.80
2019-01-21T03:02:04.918Z,-7.95
2019-01-21T03:05:38.340Z,-8.04
2019-01-21T03:09:11.950Z,-7.99
2019-01-21T03:12:11.805Z,-7.93
2019-01-21T03:15:51.720Z,-7.77
2019-01-21T03:19:42.427Z,-7.92
2019-01-21T03:22:56.054Z,-8.16
2019-01-21T03:26:28.327Z,-8.26
2019-01-21T03:29:40.728Z,-7.97
2019-01-21T03:32:50.154Z,-7.81
2019-01-21T03:36:06.066Z,-7.96
2019-01-21T03:39:26.248Z,-8.11
2019-01-21T03:42:30.610Z,-8.11
2019-01-21T03:46:01.572Z,-8.14
2019-01-21T03:48:47.661Z,-8.12
2019-01-21T03:52:19.788Z,-8.03
2019-01-21T03:55:05.591Z,-7.81
2019-01-21T03:58:27.716Z,-7.87
2019-01-21T04:01:57.526Z,-7.81
2019-01-21T04:05:21.769Z,-7.91
2019-01-21T04:08:36.715Z,-8.03
2019-01-21T04:12:03.161Z,-8.16
2019-01-21T04:15:30.625Z,-8.26
2019-01-21T04:18:54.735Z,-8.11
2019-01-21T04:22:08.358Z,-7.93
2019-01-21T04:25:24.500Z,-7.84
2019-01-21T04:28:24.398Z,-8.10
2019-01-21T04:32:00.132Z,-8.30
2019-01-21T04:35:33.476Z,-8.44
2019-01-21T04:38:56.586Z,-8.49
2019-01-21T04:41:55.457Z,-8.42
2019-01-21T04:45:21.262Z,-8.27
2019-01-21T04:48:35.813Z,-8.25
2019-01-21T04:52:22.664Z,-8.32
2019-01-21T04:56:02.584Z,-8.27
2019-01-21T04:59:35.645Z,-8.42
2019-01-21T05:02:52.653Z,-8.54
2019-01-21T05:06:17.015Z,-8.71
2019-01-21T05:09:43.553Z,-8.69
2019-01-21T05:13:06.608Z,-8.41
2019-01-21T05:16:23.460Z,-8.44
2019-01-21T05:19:57.644Z,-8.55
2019-01-21T05:23:17.669Z,-8.67
2019-01-21T05:26:28.282Z,-8.79
2019-01-21T05:30:14.890Z,-8.78
2019-01-21T05:33:31.237Z,-8.81
2019-01-21T05:37:07.381Z,-8.70
2019-01-21T05:40:36.630Z,-8.79
2019-01-21T05:44:00.427Z,-8.81
2019-01-21T05:47:46.670Z,-8.53
2019-01-21T05:50:52.567Z,-8.55
2019-01-21T05:54:11.588Z,-8.53
2019-01-21T05:57:29.440Z,-8.54
2019-01-21T06:01:05.973Z,-8.54
2019-01-21T06:04:54.469Z,-8.36
2019-01-21T06:08:39.175Z,-8.28
2019-01-21T06:12:05.394Z,-8.39
2019-01-21T06:15:28.380Z,-8.22
2019-01-21T06:18:42.545Z,-8.22
2019-01-21T06:22:01.577Z,-8.32
2019-01-21T06:25:20.187Z,-8.31
2019-01-21T06:29:07.470Z,-8.34
2019-01-21T06:32:16.500Z,-8.21
2019-01-21T06:35:28.431Z,-7.99
2019-01-21T06:38:54.769Z,-8.13
2019-01-21T06:42:08.178Z,-8.35
2019-01-21T06:45:51.227Z,-8.38
2019-01-21T06:49:11.561Z,-8.56
2019-01-21T06:52:10.201Z,-8.65
2019-01-21T06:55:35.474Z,-8.62
2019-01-21T06:58:58.763Z,-8.59
2019-01-21T07:02:32.948Z,-8.72
2019-01-21T07:05:36.725Z,-8.70
2019-01-21T07:08:58.122Z,-8.74
2019-01-21T07:12:13.368Z,-8.85
2019-01-21T07:15:46.899Z,-8.94
2019-01-21T07:19:20.509Z,-8.77
2019-01-21T07:22:37.673Z,-8.76
2019-01-21T07:26:03.239Z,-8.86
2019-01-21T07:29:25.888Z,-8.82
2019-01-21T07:33:17.702Z,-8.83
2019-01-21T07:36:43.768Z,-8.55
2019-01-21T07:40:14.222Z,-8.49
2019-01-21T07:43:58.633Z,-8.21
2019-01-21T07:47:40.477Z,-8.26
2019-01-21T07:50:59.868Z,-8.19
2019-01-21T07:54:31.413Z,-8.14
2019-01-21T07:58:02.320Z,-7.87
2019-01-21T08:01:19.348Z,-7.73
2019-01-21T08:04:55.440Z,-7.70
2019-01-21T08:08:17.168Z,-7.64
2019-01-21T08:11:58.234Z,-7.57
2019-01-21T08:15:00.715Z,-7.62
2019-01-21T08:18:20.045Z,-7.45
2019-01-21T08:21:39.703Z,-7.39
2019-01-21T08:24:55.556Z,-7.37
2019-01-21T08:28:01.607Z,-7.41
2019-01-21T08:31:12.731Z,-7.32
2019-01-21T08:34:45.055Z,-7.17
2019-01-21T08:37:53.105Z,-7.04
2019-01-21T08:41:42.027Z,-6.87
2019-01-21T08:45:13.921Z,-6.68
2019-01-21T08:48:40.109Z,-6.56
2019-01-21T08:52:05.093Z,-6.40
2019-01-21T08:55:42.254Z,-6.18
2019-01-21T08:59:09.416Z,-5.78
2019-01-21T09:02:24.415Z,-5.45
2019-01-21T09:05:52.277Z,-5.13
2019-01-21T09:09:26.512Z,-4.74
2019-01-21T09:12:24.397Z,-4.55
2019-01-21T09:15:30.718Z,-4.42
2019-01-21T09:18:35.847Z,-4.21
2019-01-21T09:22:04.698Z,-4.12
2019-01-21T09:25:19.117Z,-4.03
2019-01-21T09:28:58.902Z,-3.96
2019-01-21T09:32:24.583Z,-3.91
2019-01-21T09:35:46.038Z,-3.85
2019-01-21T09:39:20.711Z,-3.75
2019-01-21T09:42:21.370Z,-3.65
2019-01-21T09:45:58.829Z,-3.54
2019-01-21T09:48:30.533Z,-3.45
2019-01-21T09:51:08.021Z,-3.41
2019-01-21T09:53:48.098Z,-3.39
2019-01-21T09:56:23.389Z,-3.36
2019-01-21T09:59:03.948Z,-3.29
2019-01-21T10:01:37.694Z,-3.26
2019-01-21T10:04:25.473Z,-3.19
2019-01-21T10:07:32.288Z,-3.11
2019-01-21T10:10:44.306Z,-3.02
2019-01-21T10:13:55.624Z,-2.95
2019-01-21T10:17:10.289Z,-2.86
2019-01-21T10:20:28.844Z,-2.70
2019-01-21T10:24:05.323Z,-1.95
2019-01-21T10:27:34.879Z,-0.94
2019-01-21T10:30:50.473Z,-0.42
2019-01-21T10:34:15.994Z,-0.11
2019-01-21T10:38:19.170Z,0.18
2019-01-21T10:41:29.611Z,0.28
2019-01-21T10:45:14.063Z,0.47
2019-01-21T10:48:29.747Z,0.69
2019-01-21T10:51:35.158Z,0.90
2019-01-21T10:54:58.963Z,0.91
2019-01-21T10:58:14.865Z,0.81
2019-01-21T11:01:25.755Z,0.85
2019-01-21T11:04:37.184Z,0.99
2019-01-21T11:08:02.194Z,1.11
2019-01-21T11:11:15.511Z,1.35
2019-01-21T11:14:25.132Z,1.56
2019-01-21T11:17:56.315Z,1.70
2019-01-21T11:21:10.486Z,1.64
2019-01-21T11:25:16.597Z,1.56
2019-01-21T11:28:22.368Z,1.53
2019-01-21T11:31:44.741Z,1.64
2019-01-21T11:35:01.243Z,1.48
2019-01-21T11:38:22.994Z,1.46
2019-01-21T11:41:57.668Z,1.67
2019-01-21T11:45:18.625Z,2.00
2019-01-21T11:48:36.181Z,2.06
2019-01-21T11:51:45.074Z,2.18
2019-01-21T11:55:01.849Z,2.19
2019-01-21T11:58:22.387Z,2.47
2019-01-21T12:02:07.815Z,2.66
2019-01-21T12:05:28.478Z,2.66
2019-01-21T12:09:00.842Z,2.85
2019-01-21T12:12:24.332Z,3.14
2019-01-21T12:15:45.728Z,3.38
2019-01-21T12:19:02.064Z,3.33
2019-01-21T12:22:36.167Z,3.32
2019-01-21T12:25:29.505Z,3.18
2019-01-21T12:28:42.558Z,3.05
2019-01-21T12:32:01.492Z,2.95
2019-01-21T12:35:39.991Z,2.70
2019-01-21T12:39:05.693Z,2.76
2019-01-21T12:42:02.534Z,2.84
2019-01-21T12:46:02.575Z,2.94
2019-01-21T12:49:18.047Z,2.79
2019-01-21T12:52:17.216Z,2.95
2019-01-21T12:55:24.855Z,3.07
2019-01-21T12:58:39.735Z,3.11
2019-01-21T13:01:48.074Z,3.06
2019-01-21T13:05:17.286Z,3.08
2019-01-21T13:08:22.847Z,3.22
2019-01-21T13:11:33.505Z,3.15
2019-01-21T13:15:00.204Z,3.11
2019-01-21T13:18:28.395Z,3.36
2019-01-21T13:22:03.629Z,3.48
2019-01-21T13:25:10.104Z,3.61
2019-01-21T13:28:24.653Z,3.46
2019-01-21T13:31:46.903Z,3.11
2019-01-21T13:35:00.954Z,3.14
2019-01-21T13:38:28.467Z,3.16
2019-01-21T13:42:00.493Z,3.11
2019-01-21T13:45:27.855Z,3.17
2019-01-21T13:49:02.382Z,3.22
2019-01-21T13:52:22.934Z,3.23
2019-01-21T13:55:35.304Z,3.41
2019-01-21T13:59:00.201Z,3.44
2019-01-21T14:02:03.695Z,3.62
2019-01-21T14:05:31.353Z,3.68
2019-01-21T14:08:28.169Z,3.61
2019-01-21T14:11:28.086Z,3.48
2019-01-21T14:14:37.164Z,3.73
2019-01-21T14:17:54.991Z,3.61
2019-01-21T14:21:04.684Z,3.48
2019-01-21T14:25:00.279Z,3.55
2019-01-21T14:28:25.477Z,3.66
2019-01-21T14:31:57.967Z,3.66
2019-01-21T14:35:28.308Z,3.74
2019-01-21T14:39:00.405Z,3.76
2019-01-21T14:42:45.734Z,3.51
2019-01-21T14:45:43.881Z,3.64
2019-01-21T14:49:04.561Z,3.56
2019-01-21T14:52:37.029Z,3.37
2019-01-21T14:55:51.347Z,3.24
2019-01-21T14:58:51.723Z,3.16
2019-01-21T15:02:21.188Z,3.13
2019-01-21T15:05:54.938Z,3.16
2019-01-21T15:08:49.627Z,3.12
2019-01-21T15:12:11.773Z,3.01
2019-01-21T15:15:32.929Z,2.89
2019-01-21T15:18:47.259Z,2.83
2019-01-21T15:21:54.914Z,2.67
2019-01-21T15:25:15.293Z,2.50
2019-01-21T15:29:02.677Z,2.28
2019-01-21T15:32:54.696Z,2.06
2019-01-21T15:36:32.766Z,1.85
2019-01-21T15:39:46.788Z,1.57
2019-01-21T15:43:07.190Z,1.39
2019-01-21T15:46:08.988Z,1.24
2019-01-21T15:49:38.039Z,1.02
2019-01-21T15:52:35.414Z,0.75
2019-01-21T15:55:40.569Z,0.51
2019-01-21T15:58:38.212Z,0.25
2019-01-21T16:01:53.282Z,-0.01
2019-01-21T16:05:00.397Z,-0.24
2019-01-21T16:08:03.326Z,-0.43
2019-01-21T16:11:31.304Z,-0.63
2019-01-21T16:14:23.886Z,-0.82
2019-01-21T16:17:40.952Z,-0.98
2019-01-21T16:20:47.179Z,-1.07
2019-01-21T16:23:51.398Z,-1.04
2019-01-21T16:26:43.500Z,-1.03
2019-01-21T16:29:45.275Z,-1.13
2019-01-21T16:32:42.892Z,-1.31
2019-01-21T16:36:12.663Z,-1.43
2019-01-21T16:39:47.496Z,-1.55
2019-01-21T16:42:31.917Z,-1.67
2019-01-21T16:45:08.651Z,-1.74
2019-01-21T16:47:49.541Z,-1.77
2019-01-21T16:50:25.837Z,-1.82
2019-01-21T16:53:16.455Z,-1.96
2019-01-21T16:55:51.197Z,-2.07
2019-01-21T16:58:24.968Z,-2.16
2019-01-21T17:01:00.914Z,-2.37
2019-01-21T17:03:34.245Z,-2.57
2019-01-21T17:06:07.424Z,-2.60
2019-01-21T17:08:42.301Z,-2.73
2019-01-21T17:11:18.068Z,-2.79
2019-01-21T17:13:52.964Z,-2.90
2019-01-21T17:16:29.112Z,-2.98
2019-01-21T17:19:03.220Z,-2.94
2019-01-21T17:21:37.613Z,-2.83
2019-01-21T17:24:13.232Z,-2.48
2019-01-21T17:26:51.009Z,-2.46
2019-01-21T17:29:24.354Z,-2.64
2019-01-21T17:31:58.199Z,-2.72
2019-01-21T17:34:32.782Z,-2.77
2019-01-21T17:37:07.910Z,-2.84
2019-01-21T17:39:41.776Z,-2.80
2019-01-21T17:42:15.701Z,-2.80
2019-01-21T17:44:52.790Z,-2.77
2019-01-21T17:47:31.379Z,-2.84
2019-01-21T17:50:05.359Z,-2.89
2019-01-21T17:52:42.672Z,-2.92
2019-01-21T17:55:20.374Z,-2.90
2019-01-21T17:57:53.339Z,-2.89
2019-01-21T18:00:31.603Z,-2.90
2019-01-21T18:03:06.396Z,-2.91
2019-01-21T18:05:43.809Z,-2.90
2019-01-21T18:08:17.571Z,-2.83
2019-01-21T18:10:51.965Z,-2.76
2019-01-21T18:13:27.486Z,-2.63
2019-01-21T18:16:04.643Z,-2.60
2019-01-21T18:18:38.653Z,-2.60
2019-01-21T18:21:12.635Z,-2.64
2019-01-21T18:23:51.841Z,-2.65
2019-01-21T18:26:25.096Z,-2.70
2019-01-21T18:29:00.691Z,-2.67
2019-01-21T18:31:36.417Z,-2.78
2019-01-21T18:34:12.581Z,-2.87
2019-01-21T18:36:50.777Z,-2.98
2019-01-21T18:39:27.887Z,-3.14
2019-01-21T18:42:02.540Z,-3.28
2019-01-21T18:44:36.523Z,-3.43
2019-01-21T18:47:13.539Z,-3.62
2019-01-21T18:49:47.957Z,-3.78
2019-01-21T18:52:21.240Z,-3.87
2019-01-21T18:54:56.757Z,-3.99
2019-01-21T18:57:34.043Z,-4.09
2019-01-21T19:00:17.594Z,-4.19
2019-01-21T19:02:51.466Z,-4.25
2019-01-21T19:05:25.955Z,-4.32
2019-01-21T19:08:05.489Z,-4.41
2019-01-21T19:10:47.436Z,-4.51
2019-01-21T19:13:26.249Z,-4.34
2019-01-21T19:15:59.823Z,-4.25
2019-01-21T19:18:35.915Z,-4.34
2019-01-21T19:21:09.026Z,-4.40
2019-01-21T19:23:46.357Z,-4.47
2019-01-21T19:26:21.291Z,-4.45
2019-01-21T19:28:55.696Z,-4.37
2019-01-21T19:31:29.480Z,-4.36
2019-01-21T19:34:06.728Z,-4.26
2019-01-21T19:36:43.117Z,-4.24
2019-01-21T19:39:23.612Z,-4.23
2019-01-21T19:41:59.338Z,-4.19
2019-01-21T19:44:34.365Z,-4.17
2019-01-21T19:47:07.970Z,-4.19
2019-01-21T19:49:42.322Z,-4.24
2019-01-21T19:52:15.804Z,-4.31
2019-01-21T19:54:51.130Z,-4.45
2019-01-21T19:57:27.196Z,-4.54
2019-01-21T20:00:04.547Z,-4.68
2019-01-21T20:02:38.635Z,-4.83
2019-01-21T20:05:12.675Z,-4.90
2019-01-21T20:07:47.347Z,-5.00
2019-01-21T20:10:21.689Z,-5.08
2019-01-21T20:13:05.747Z,-5.05
2019-01-21T20:15:40.734Z,-5.12
2019-01-21T20:18:13.799Z,-5.19
2019-01-21T20:20:58.437Z,-5.25
2019-01-21T20:23:37.598Z,-5.31
2019-01-21T20:26:10.735Z,-5.26
2019-01-21T20:28:45.836Z,-5.21
2019-01-21T20:31:20.016Z,-5.24
2019-01-21T20:33:53.829Z,-5.26
2019-01-21T20:36:28.322Z,-5.27
2019-01-21T20:39:05.163Z,-5.30
2019-01-21T20:41:38.298Z,-5.27
2019-01-21T20:44:16.053Z,-5.28
2019-01-21T20:46:49.041Z,-5.19
2019-01-21T20:49:26.680Z,-5.08
2019-01-21T20:52:01.744Z,-4.96
2019-01-21T20:54:35.468Z,-4.69
2019-01-21T20:57:10.398Z,-4.47
2019-01-21T20:59:44.228Z,-4.31
2019-01-21T21:02:18.560Z,-4.16
2019-01-21T21:04:51.685Z,-4.04
2019-01-21T21:07:27.988Z,-4.05
2019-01-21T21:10:05.728Z,-4.03
2019-01-21T21:12:46.218Z,-3.98
2019-01-21T21:15:27.140Z,-3.96
2019-01-21T21:18:00.993Z,-3.81
2019-01-21T21:20:36.598Z,-3.74
2019-01-21T21:23:10.847Z,-3.70
2019-01-21T21:25:46.997Z,-3.52
2019-01-21T21:28:33.095Z,-3.40
2019-01-21T21:31:07.421Z,-3.27
2019-01-21T21:33:41.400Z,-3.25
2019-01-21T21:36:14.785Z,-3.26
2019-01-21T21:38:49.009Z,-3.25
2019-01-21T21:41:22.393Z,-3.18
2019-01-21T21:43:56.065Z,-3.13
2019-01-21T21:46:29.892Z,-3.11
2019-01-21T21:49:04.240Z,-3.11
2019-01-21T21:51:37.541Z,-3.05
2019-01-21T21:54:10.516Z,-2.98
2019-01-21T21:56:46.450Z,-2.93
2019-01-21T21:59:20.344Z,-2.89
2019-01-21T22:01:56.582Z,-2.88
2019-01-21T22:04:35.127Z,-2.79
2019-01-21T22:07:14.257Z,-2.79
2019-01-21T22:09:49.182Z,-2.77
2019-01-21T22:12:22.215Z,-2.79
2019-01-21T22:14:57.806Z,-2.51
2019-01-21T22:17:30.771Z,-2.47
2019-01-21T22:20:06.036Z,-2.60
2019-01-21T22:22:41.882Z,-2.70
2019-01-21T22:25:17.566Z,-2.73
2019-01-21T22:27:51.100Z,-2.75
2019-01-21T22:30:30.060Z,-2.75
2019-01-21T22:33:05.405Z,-2.80
2019-01-21T22:35:40.065Z,-2.85
2019-01-21T22:38:14.153Z,-2.90
2019-01-21T22:40:49.234Z,-2.94
2019-01-21T22:43:23.403Z,-2.96
2019-01-21T22:45:57.682Z,-2.95
2019-01-21T22:48:31.201Z,-2.98
2019-01-21T22:51:04.604Z,-3.00
2019-01-21T22:53:39.055Z,-3.00
2019-01-21T22:56:12.363Z,-3.07
2019-01-21T22:58:45.200Z,-3.16
2019-01-21T23:01:31.950Z,-3.15
2019-01-21T23:04:05.119Z,-3.24
2019-01-21T23:06:39.076Z,-3.34
2019-01-21T23:09:13.068Z,-3.51
2019-01-21T23:11:54.050Z,-3.58
2019-01-21T23:14:29.166Z,-3.64
2019-01-21T23:17:03.572Z,-3.58
2019-01-21T23:19:36.579Z,-3.55
2019-01-21T23:22:10.542Z,-3.46
2019-01-21T23:24:43.992Z,-3.38
2019-01-21T23:27:16.904Z,-3.32
2019-01-21T23:29:51.934Z,-3.25
2019-01-21T23:32:25.689Z,-3.14
2019-01-21T23:34:58.580Z,-3.04
2019-01-21T23:37:33.037Z,-2.99
2019-01-21T23:40:09.292Z,-3.00
2019-01-21T23:42:42.229Z,-3.04
2019-01-21T23:45:16.701Z,-3.02
2019-01-21T23:47:51.063Z,-3.05
2019-01-21T23:50:24.174Z,-3.07
2019-01-21T23:52:57.887Z,-3.08
2019-01-21T23:55:31.273Z,-3.15
2019-01-21T23:58:04.256Z,-3.19
